createdAt,value
2022-10-28T00:00:38.202Z,101288.00
2022-10-28T00:01:41.483Z,101294.39
2022-10-28T00:02:43.994Z,101292.70
2022-10-28T00:03:52.094Z,101292.20
2022-10-28T00:04:55.516Z,101292.20
2022-10-28T00:06:07.100Z,101288.58
2022-10-28T00:07:10.929Z,101294.02
2022-10-28T00:08:16.453Z,101290.58
2022-10-28T00:09:19.286Z,101291.94
2022-10-28T00:10:24.331Z,101292.80
2022-10-28T00:11:29.754Z,101298.50
2022-10-28T00:12:36.993Z,101295.36
2022-10-28T00:13:39.897Z,101302.41
2022-10-28T00:14:43.402Z,101300.02
2022-10-28T00:15:46.582Z,101291.34
2022-10-28T00:16:49.929Z,101303.27
2022-10-28T00:17:58.114Z,101291.41
2022-10-28T00:19:01.067Z,101287.80
2022-10-28T00:20:04.826Z,101294.75
2022-10-28T00:21:10.994Z,101292.95
2022-10-28T00:22:14.089Z,101293.80
2022-10-28T00:23:17.499Z,101290.37
2022-10-28T00:24:20.681Z,101291.73
2022-10-28T00:25:25.661Z,101291.16
2022-10-28T00:26:32.065Z,101293.64
2022-10-28T00:27:37.715Z,101303.27
2022-10-28T00:28:48.422Z,101300.38
2022-10-28T00:29:54.740Z,101302.19
2022-10-28T00:30:58.839Z,101299.33
2022-10-28T00:32:03.332Z,101304.39
2022-10-28T00:33:07.014Z,101299.91
2022-10-28T00:34:11.451Z,101298.56
2022-10-28T00:35:14.948Z,101304.77
2022-10-28T00:36:26.463Z,101298.66
2022-10-28T00:37:29.651Z,101302.86
2022-10-28T00:38:33.804Z,101304.67
2022-10-28T00:39:37.429Z,101308.20
2022-10-28T00:40:40.516Z,101300.95
2022-10-28T00:41:45.588Z,101298.47
2022-10-28T00:42:48.267Z,101305.36
2022-10-28T00:43:53.861Z,101309.56
2022-10-28T00:44:58.196Z,101307.08
2022-10-28T00:46:01.946Z,101308.13
2022-10-28T00:47:06.768Z,101305.36
2022-10-28T00:48:10.179Z,101309.36
2022-10-28T00:49:22.772Z,101307.73
2022-10-28T00:50:43.303Z,101310.53
2022-10-28T00:51:48.477Z,101313.08
2022-10-28T00:52:55.218Z,101309.17
2022-10-28T00:53:59.030Z,101313.38
2022-10-28T00:55:03.615Z,101314.13
2022-10-28T00:56:10.039Z,101311.37
2022-10-28T00:57:16.342Z,101318.13
2022-10-28T00:58:20.358Z,101315.46
2022-10-28T00:59:26.172Z,101312.61
2022-10-28T01:00:29.781Z,101314.23
2022-10-28T01:01:32.426Z,101317.17
2022-10-28T01:02:39.024Z,101316.99
2022-10-28T01:03:42.558Z,101313.38
2022-10-28T01:04:47.039Z,101316.71
2022-10-28T01:05:53.231Z,101317.56
2022-10-28T01:07:00.887Z,101320.23
2022-10-28T01:08:04.818Z,101326.44
2022-10-28T01:09:07.837Z,101318.52
2022-10-28T01:10:10.716Z,101316.62
2022-10-28T01:11:18.924Z,101317.66
2022-10-28T01:12:27.066Z,101309.75
2022-10-28T01:13:50.068Z,101316.80
2022-10-28T01:15:14.508Z,101313.47
2022-10-28T01:16:21.524Z,101322.42
2022-10-28T01:17:29.281Z,101320.61
2022-10-28T01:18:46.810Z,101320.89
2022-10-28T01:20:08.488Z,101317.27
2022-10-28T01:21:16.589Z,101317.09
2022-10-28T01:22:29.221Z,101318.80
2022-10-28T01:23:47.542Z,101316.23
2022-10-28T01:24:55.722Z,101319.94
2022-10-28T01:26:08.408Z,101322.52
2022-10-28T01:27:22.787Z,101317.59
2022-10-28T01:28:31.410Z,101328.63
2022-10-28T01:29:56.310Z,101322.62
2022-10-28T01:31:15.233Z,101321.08
2022-10-28T01:32:20.352Z,101316.14
2022-10-28T01:33:27.313Z,101316.91
2022-10-28T01:34:37.608Z,101315.10
2022-10-28T01:35:46.232Z,101312.02
2022-10-28T01:36:51.396Z,101314.79
2022-10-28T01:38:05.346Z,101309.36
2022-10-28T01:39:14.491Z,101313.29
2022-10-28T01:40:26.049Z,101308.23
2022-10-28T01:41:30.170Z,101313.48
2022-10-28T01:42:34.550Z,101309.67
2022-10-28T01:43:44.480Z,101308.72
2022-10-28T01:44:52.811Z,101308.41
2022-10-28T01:46:01.018Z,101301.26
2022-10-28T01:47:15.029Z,101306.69
2022-10-28T01:48:22.871Z,101307.55
2022-10-28T01:49:27.409Z,101304.02
2022-10-28T01:50:48.869Z,101310.31
2022-10-28T01:51:54.263Z,101312.98
2022-10-28T01:52:58.813Z,101305.83
2022-10-28T01:54:04.203Z,101314.06
2022-10-28T01:55:12.260Z,101315.01
2022-10-28T01:56:17.683Z,101311.48
2022-10-28T01:57:21.804Z,101312.13
2022-10-28T01:58:27.097Z,101307.64
2022-10-28T01:59:31.545Z,101311.17
2022-10-28T02:00:35.565Z,101312.34
2022-10-28T02:01:39.136Z,101312.62
2022-10-28T02:02:45.978Z,101308.33
2022-10-28T02:03:48.903Z,101307.19
2022-10-28T02:04:52.022Z,101309.95
2022-10-28T02:06:00.693Z,101313.66
2022-10-28T02:07:05.151Z,101308.23
2022-10-28T02:08:22.876Z,101315.28
2022-10-28T02:09:34.736Z,101309.86
2022-10-28T02:10:40.222Z,101308.69
2022-10-28T02:12:01.401Z,101317.01
2022-10-28T02:13:06.660Z,101313.84
2022-10-28T02:14:15.179Z,101311.76
2022-10-28T02:15:19.312Z,101310.63
2022-10-28T02:16:27.725Z,101313.20
2022-10-28T02:17:42.812Z,101313.20
2022-10-28T02:18:49.437Z,101315.74
2022-10-28T02:19:54.602Z,101312.71
2022-10-28T02:21:03.481Z,101317.28
2022-10-28T02:22:08.855Z,101309.09
2022-10-28T02:23:13.424Z,101313.75
2022-10-28T02:24:37.172Z,101304.89
2022-10-28T02:25:45.377Z,101310.99
2022-10-28T02:26:50.542Z,101310.99
2022-10-28T02:28:01.936Z,101313.48
2022-10-28T02:29:22.838Z,101310.05
2022-10-28T02:30:32.809Z,101311.58
2022-10-28T02:31:38.058Z,101318.63
2022-10-28T02:32:43.168Z,101314.16
2022-10-28T02:33:48.338Z,101312.34
2022-10-28T02:34:53.524Z,101315.75
2022-10-28T02:35:57.970Z,101314.61
2022-10-28T02:37:03.030Z,101305.47
2022-10-28T02:38:09.058Z,101309.86
2022-10-28T02:39:12.339Z,101309.00
2022-10-28T02:40:19.335Z,101309.86
2022-10-28T02:41:25.732Z,101306.23
2022-10-28T02:42:33.623Z,101314.34
2022-10-28T02:43:39.007Z,101315.10
2022-10-28T02:44:44.054Z,101315.01
2022-10-28T02:45:49.467Z,101317.67
2022-10-28T02:46:55.678Z,101316.91
2022-10-28T02:48:02.000Z,101313.38
2022-10-28T02:49:07.950Z,101313.48
2022-10-28T02:50:13.302Z,101306.33
2022-10-28T02:51:23.179Z,101314.52
2022-10-28T02:52:27.614Z,101316.23
2022-10-28T02:53:34.982Z,101318.81
2022-10-28T02:54:40.377Z,101314.52
2022-10-28T02:55:44.949Z,101316.14
2022-10-28T02:56:54.805Z,101310.90
2022-10-28T02:57:59.581Z,101316.14
2022-10-28T02:59:01.919Z,101313.48
2022-10-28T03:00:09.088Z,101311.76
2022-10-28T03:01:12.699Z,101314.34
2022-10-28T03:02:16.971Z,101314.42
2022-10-28T03:03:21.507Z,101310.90
2022-10-28T03:04:23.937Z,101309.95
2022-10-28T03:05:27.231Z,101311.76
2022-10-28T03:06:30.634Z,101315.37
2022-10-28T03:07:34.136Z,101325.20
2022-10-28T03:08:37.212Z,101313.57
2022-10-28T03:09:39.994Z,101313.57
2022-10-28T03:10:43.076Z,101309.19
2022-10-28T03:11:46.265Z,101310.90
2022-10-28T03:12:49.676Z,101313.48
2022-10-28T03:13:54.022Z,101317.95
2022-10-28T03:14:57.302Z,101310.05
2022-10-28T03:15:59.555Z,101310.13
2022-10-28T03:17:02.442Z,101312.80
2022-10-28T03:18:05.742Z,101313.57
2022-10-28T03:20:12.958Z,101306.61
2022-10-28T03:21:17.912Z,101308.51
2022-10-28T03:22:22.046Z,101321.85
2022-10-28T03:23:27.153Z,101320.23
2022-10-28T03:24:30.414Z,101312.80
2022-10-28T03:25:35.704Z,101321.85
2022-10-28T03:26:38.060Z,101322.03
2022-10-28T03:27:42.552Z,101320.35
2022-10-28T03:28:46.011Z,101318.41
2022-10-28T03:29:48.889Z,101325.56
2022-10-28T03:30:52.490Z,101322.25
2022-10-28T03:31:55.679Z,101315.88
2022-10-28T03:32:58.459Z,101319.67
2022-10-28T03:34:02.375Z,101326.64
2022-10-28T03:35:05.254Z,101323.20
2022-10-28T03:36:09.187Z,101318.05
2022-10-28T03:37:12.338Z,101319.67
2022-10-28T03:38:15.780Z,101318.81
2022-10-28T03:39:18.343Z,101318.73
2022-10-28T03:40:21.525Z,101324.16
2022-10-28T03:41:27.682Z,101316.15
2022-10-28T03:42:31.156Z,101324.06
2022-10-28T03:43:34.558Z,101316.15
2022-10-28T03:44:37.737Z,101325.10
2022-10-28T03:45:40.898Z,101319.95
2022-10-28T03:46:43.181Z,101323.20
2022-10-28T03:47:46.376Z,101315.97
2022-10-28T03:48:48.563Z,101314.25
2022-10-28T03:49:52.091Z,101307.01
2022-10-28T03:50:56.166Z,101318.73
2022-10-28T03:52:01.448Z,101314.52
2022-10-28T03:53:04.326Z,101314.43
2022-10-28T03:54:08.562Z,101312.71
2022-10-28T03:55:12.833Z,101314.70
2022-10-28T03:56:18.005Z,101313.75
2022-10-28T03:57:26.295Z,101312.80
2022-10-28T03:58:30.045Z,101310.23
2022-10-28T03:59:33.294Z,101311.27
2022-10-28T04:00:36.802Z,101307.56
2022-10-28T04:01:39.313Z,101313.94
2022-10-28T04:02:43.287Z,101308.05
2022-10-28T04:03:46.050Z,101308.81
2022-10-28T04:04:49.419Z,101316.70
2022-10-28T04:05:53.164Z,101315.75
2022-10-28T04:06:57.610Z,101304.52
2022-10-28T04:08:01.323Z,101314.98
2022-10-28T04:09:05.673Z,101310.63
2022-10-28T04:10:09.701Z,101313.47
2022-10-28T04:11:12.987Z,101311.58
2022-10-28T04:12:15.467Z,101304.30
2022-10-28T04:13:20.624Z,101308.60
2022-10-28T04:14:23.094Z,101311.27
2022-10-28T04:15:26.381Z,101316.52
2022-10-28T04:16:29.441Z,101304.89
2022-10-28T04:17:34.759Z,101308.69
2022-10-28T04:18:39.765Z,101303.36
2022-10-28T04:19:43.126Z,101310.41
2022-10-28T04:20:51.123Z,101305.84
2022-10-28T04:21:54.616Z,101305.75
2022-10-28T04:22:58.667Z,101304.80
2022-10-28T04:24:09.164Z,101309.19
2022-10-28T04:25:12.534Z,101299.73
2022-10-28T04:26:17.004Z,101307.73
2022-10-28T04:27:20.404Z,101311.17
2022-10-28T04:28:26.702Z,101311.75
2022-10-28T04:29:29.607Z,101309.86
2022-10-28T04:30:35.816Z,101309.77
2022-10-28T04:31:40.008Z,101313.17
2022-10-28T04:32:42.932Z,101312.31
2022-10-28T04:33:46.240Z,101319.85
2022-10-28T04:34:50.056Z,101317.95
2022-10-28T04:35:53.386Z,101315.19
2022-10-28T04:36:56.638Z,101315.10
2022-10-28T04:38:00.811Z,101330.16
2022-10-28T04:39:04.598Z,101318.90
2022-10-28T04:40:09.925Z,101322.79
2022-10-28T04:41:14.326Z,101318.90
2022-10-28T04:42:16.681Z,101316.33
2022-10-28T04:43:20.080Z,101325.86
2022-10-28T04:44:25.570Z,101318.63
2022-10-28T04:45:28.756Z,101325.56
2022-10-28T04:46:32.257Z,101317.47
2022-10-28T04:47:36.711Z,101318.50
2022-10-28T04:48:42.368Z,101316.70
2022-10-28T04:49:46.958Z,101314.24
2022-10-28T04:50:50.259Z,101316.70
2022-10-28T04:51:52.612Z,101317.64
2022-10-28T04:52:56.213Z,101313.47
2022-10-28T04:54:00.725Z,101316.14
2022-10-28T04:55:05.620Z,101314.24
2022-10-28T04:56:09.592Z,101319.67
2022-10-28T04:57:13.049Z,101310.41
2022-10-28T04:58:16.446Z,101316.52
2022-10-28T04:59:18.810Z,101314.98
2022-10-28T05:00:22.531Z,101319.09
2022-10-28T05:01:26.287Z,101311.36
2022-10-28T05:02:29.781Z,101310.41
2022-10-28T05:03:34.915Z,101314.98
2022-10-28T05:04:38.431Z,101321.85
2022-10-28T05:05:44.746Z,101317.09
2022-10-28T05:06:48.930Z,101323.20
2022-10-28T05:07:52.593Z,101312.53
2022-10-28T05:08:57.464Z,101319.77
2022-10-28T05:10:04.101Z,101313.66
2022-10-28T05:11:07.504Z,101318.81
2022-10-28T05:12:11.844Z,101322.34
2022-10-28T05:13:17.640Z,101316.15
2022-10-28T05:14:20.827Z,101323.11
2022-10-28T05:15:27.163Z,101313.39
2022-10-28T05:16:30.552Z,101324.16
2022-10-28T05:17:35.113Z,101321.39
2022-10-28T05:18:38.553Z,101323.02
2022-10-28T05:19:44.096Z,101325.78
2022-10-28T05:20:47.507Z,101320.53
2022-10-28T05:21:50.804Z,101323.20
2022-10-28T05:22:56.780Z,101316.83
2022-10-28T05:24:05.073Z,101318.05
2022-10-28T05:25:08.829Z,101320.53
2022-10-28T05:26:12.266Z,101319.49
2022-10-28T05:27:17.311Z,101323.47
2022-10-28T05:28:21.852Z,101325.47
2022-10-28T05:29:29.704Z,101334.14
2022-10-28T05:30:32.135Z,101332.52
2022-10-28T05:31:35.508Z,101328.05
2022-10-28T05:32:38.390Z,101336.73
2022-10-28T05:33:42.727Z,101328.05
2022-10-28T05:34:46.056Z,101326.23
2022-10-28T05:35:49.529Z,101331.39
2022-10-28T05:36:54.078Z,101343.51
2022-10-28T05:37:57.783Z,101334.64
2022-10-28T05:39:01.296Z,101339.03
2022-10-28T05:40:06.684Z,101335.37
2022-10-28T05:41:10.280Z,101337.49
2022-10-28T05:42:14.214Z,101333.88
2022-10-28T05:43:17.747Z,101332.83
2022-10-28T05:44:20.911Z,101338.81
2022-10-28T05:45:24.240Z,101331.76
2022-10-28T05:46:27.543Z,101330.04
2022-10-28T05:47:30.898Z,101329.48
2022-10-28T05:48:34.458Z,101333.11
2022-10-28T05:49:38.634Z,101329.95
2022-10-28T05:50:42.242Z,101326.22
2022-10-28T05:51:45.550Z,101329.84
2022-10-28T05:52:50.100Z,101331.73
2022-10-28T05:53:54.545Z,101329.84
2022-10-28T05:54:56.796Z,101326.72
2022-10-28T05:56:00.186Z,101333.55
2022-10-28T05:57:03.703Z,101343.53
2022-10-28T05:58:07.301Z,101335.45
2022-10-28T05:59:10.504Z,101338.70
2022-10-28T06:00:14.112Z,101346.20
2022-10-28T06:01:17.975Z,101335.00
2022-10-28T06:02:22.252Z,101340.83
2022-10-28T06:03:30.104Z,101333.28
2022-10-28T06:04:31.998Z,101339.84
2022-10-28T06:05:37.161Z,101345.09
2022-10-28T06:06:40.467Z,101344.14
2022-10-28T06:07:43.869Z,101344.72
2022-10-28T06:08:46.109Z,101343.96
2022-10-28T06:09:52.446Z,101350.74
2022-10-28T06:10:55.877Z,101347.77
2022-10-28T06:11:59.800Z,101342.65
2022-10-28T06:13:03.399Z,101353.32
2022-10-28T06:14:08.473Z,101344.45
2022-10-28T06:15:11.833Z,101342.25
2022-10-28T06:16:17.102Z,101347.98
2022-10-28T06:17:21.498Z,101349.89
2022-10-28T06:18:26.099Z,101352.56
2022-10-28T06:19:29.290Z,101350.52
2022-10-28T06:20:32.850Z,101353.97
2022-10-28T06:21:40.451Z,101353.02
2022-10-28T06:22:50.416Z,101350.84
2022-10-28T06:23:53.302Z,101353.02
2022-10-28T06:24:57.004Z,101356.94
2022-10-28T06:26:01.392Z,101357.80
2022-10-28T06:27:04.839Z,101362.65
2022-10-28T06:28:10.492Z,101364.45
2022-10-28T06:29:13.747Z,101371.15
2022-10-28T06:30:18.817Z,101364.37
2022-10-28T06:31:22.334Z,101362.28
2022-10-28T06:32:26.561Z,101361.88
2022-10-28T06:33:33.127Z,101368.28
2022-10-28T06:34:38.167Z,101369.61
2022-10-28T06:35:41.769Z,101368.30
2022-10-28T06:36:44.450Z,101370.10
2022-10-28T06:37:48.069Z,101370.66
2022-10-28T06:38:52.548Z,101372.95
2022-10-28T06:39:56.860Z,101377.16
2022-10-28T06:40:59.736Z,101373.32
2022-10-28T06:42:03.141Z,101369.42
2022-10-28T06:43:11.547Z,101368.06
2022-10-28T06:44:16.092Z,101369.05
2022-10-28T06:45:19.388Z,101365.78
2022-10-28T06:46:22.800Z,101370.74
2022-10-28T06:47:27.496Z,101378.76
2022-10-28T06:48:30.282Z,101370.55
2022-10-28T06:49:33.578Z,101368.83
2022-10-28T06:50:36.248Z,101370.27
2022-10-28T06:51:41.666Z,101375.23
2022-10-28T06:52:48.180Z,101364.13
2022-10-28T06:53:52.186Z,101369.89
2022-10-28T06:54:55.807Z,101366.55
2022-10-28T06:56:02.730Z,101375.70
2022-10-28T06:57:06.465Z,101373.80
2022-10-28T06:58:09.462Z,101375.23
2022-10-28T06:59:13.044Z,101370.17
2022-10-28T07:00:18.300Z,101366.25
2022-10-28T07:01:22.597Z,101372.17
2022-10-28T07:02:26.052Z,101375.23
2022-10-28T07:03:28.439Z,101365.85
2022-10-28T07:04:31.852Z,101364.52
2022-10-28T07:05:36.396Z,101371.58
2022-10-28T07:06:40.418Z,101363.27
2022-10-28T07:07:43.613Z,101367.56
2022-10-28T07:08:47.049Z,101375.58
2022-10-28T07:09:50.412Z,101374.53
2022-10-28T07:10:54.755Z,101370.30
2022-10-28T07:12:02.263Z,101366.87
2022-10-28T07:13:05.037Z,101366.11
2022-10-28T07:14:09.345Z,101369.95
2022-10-28T07:15:13.625Z,101372.63
2022-10-28T07:16:18.248Z,101367.44
2022-10-28T07:17:21.649Z,101355.89
2022-10-28T07:18:25.563Z,101363.91
2022-10-28T07:19:29.798Z,101353.30
2022-10-28T07:20:33.532Z,101356.64
2022-10-28T07:21:37.332Z,101348.42
2022-10-28T07:22:40.777Z,101359.16
2022-10-28T07:23:44.027Z,101357.08
2022-10-28T07:24:48.894Z,101355.36
2022-10-28T07:27:00.605Z,101358.04
2022-10-28T07:28:05.083Z,101358.27
2022-10-28T07:30:13.431Z,101354.81
2022-10-28T07:31:17.356Z,101354.91
2022-10-28T07:32:22.991Z,101352.66
2022-10-28T07:33:25.827Z,101356.08
2022-10-28T07:34:28.707Z,101356.52
2022-10-28T07:35:32.141Z,101365.41
2022-10-28T07:36:34.569Z,101355.32
2022-10-28T07:37:39.451Z,101356.08
2022-10-28T07:38:42.701Z,101355.87
2022-10-28T07:39:46.013Z,101351.69
2022-10-28T07:40:51.636Z,101350.93
2022-10-28T07:41:54.903Z,101351.02
2022-10-28T07:42:59.285Z,101355.20
2022-10-28T07:44:02.654Z,101351.22
2022-10-28T07:45:05.573Z,101346.02
2022-10-28T07:46:09.977Z,101343.14
2022-10-28T07:47:13.901Z,101344.11
2022-10-28T07:48:19.078Z,101344.96
2022-10-28T07:49:23.000Z,101340.70
2022-10-28T07:50:26.503Z,101344.95
2022-10-28T07:51:30.633Z,101352.10
2022-10-28T07:52:35.287Z,101353.25
2022-10-28T07:53:37.760Z,101354.92
2022-10-28T07:54:42.703Z,101353.23
2022-10-28T07:55:46.115Z,101350.14
2022-10-28T07:56:49.725Z,101348.26
2022-10-28T07:57:56.641Z,101342.20
2022-10-28T07:59:00.897Z,101343.38
2022-10-28T08:00:06.186Z,101347.91
2022-10-28T08:01:17.510Z,101350.33
2022-10-28T08:02:21.551Z,101352.58
2022-10-28T08:03:34.595Z,101354.66
2022-10-28T08:04:32.214Z,101357.27
2022-10-28T08:05:34.466Z,101354.70
2022-10-28T08:06:38.677Z,101361.48
2022-10-28T08:07:42.235Z,101361.08
2022-10-28T08:08:46.570Z,101359.02
2022-10-28T08:09:50.029Z,101356.34
2022-10-28T08:10:56.364Z,101351.87
2022-10-28T08:12:02.497Z,101358.95
2022-10-28T08:13:07.691Z,101355.41
2022-10-28T08:14:11.361Z,101352.58
2022-10-28T08:15:15.705Z,101361.48
2022-10-28T08:16:19.340Z,101358.65
2022-10-28T08:17:23.009Z,101362.05
2022-10-28T08:18:25.184Z,101360.22
2022-10-28T08:19:27.513Z,101360.52
2022-10-28T08:20:29.778Z,101358.80
2022-10-28T08:21:33.276Z,101358.06
2022-10-28T08:22:36.606Z,101359.70
2022-10-28T08:23:40.391Z,101355.11
2022-10-28T08:24:45.224Z,101352.80
2022-10-28T08:25:51.557Z,101359.06
2022-10-28T08:26:54.977Z,101353.70
2022-10-28T08:27:58.377Z,101358.03
2022-10-28T08:29:03.658Z,101363.05
2022-10-28T08:30:07.999Z,101360.34
2022-10-28T08:31:12.587Z,101357.15
2022-10-28T08:32:15.948Z,101359.49
2022-10-28T08:33:19.559Z,101357.66
2022-10-28T08:34:25.772Z,101362.03
2022-10-28T08:35:30.641Z,101359.14
2022-10-28T08:36:34.136Z,101356.97
2022-10-28T08:37:37.652Z,101359.77
2022-10-28T08:38:45.343Z,101352.84
2022-10-28T08:39:46.438Z,101350.45
2022-10-28T08:40:52.035Z,101350.56
2022-10-28T08:41:57.208Z,101351.67
2022-10-28T08:43:02.252Z,101356.06
2022-10-28T08:44:24.168Z,101354.33
2022-10-28T08:45:38.107Z,101351.69
2022-10-28T08:46:52.162Z,101361.80
2022-10-28T08:48:13.958Z,101351.08
2022-10-28T08:49:18.611Z,101354.14
2022-10-28T08:50:23.569Z,101360.20
2022-10-28T08:51:44.516Z,101358.05
2022-10-28T08:52:56.673Z,101358.03
2022-10-28T08:54:02.190Z,101365.17
2022-10-28T08:55:08.726Z,101364.84
2022-10-28T08:56:15.040Z,101369.81
2022-10-28T08:57:20.441Z,101372.47
2022-10-28T08:58:24.775Z,101367.75
2022-10-28T08:59:31.626Z,101376.36
2022-10-28T09:00:35.444Z,101372.70
2022-10-28T09:01:42.779Z,101366.59
2022-10-28T09:03:04.898Z,101371.00
2022-10-28T09:04:10.399Z,101371.59
2022-10-28T09:05:21.675Z,101361.20
2022-10-28T09:06:23.877Z,101360.55
2022-10-28T09:07:27.282Z,101360.97
2022-10-28T09:08:32.141Z,101359.14
2022-10-28T09:09:35.849Z,101359.86
2022-10-28T09:10:42.945Z,101362.68
2022-10-28T09:11:52.165Z,101354.63
2022-10-28T09:12:58.206Z,101357.88
2022-10-28T09:14:05.803Z,101354.83
2022-10-28T09:15:15.520Z,101350.08
2022-10-28T09:16:28.435Z,101354.73
2022-10-28T09:17:42.516Z,101358.14
2022-10-28T09:18:52.677Z,101365.84
2022-10-28T09:20:00.965Z,101353.52
2022-10-28T09:21:07.929Z,101363.91
2022-10-28T09:22:28.993Z,101365.08
2022-10-28T09:23:38.452Z,101367.04
2022-10-28T09:24:51.876Z,101368.16
2022-10-28T09:26:00.710Z,101367.19
2022-10-28T09:27:08.080Z,101359.01
2022-10-28T09:28:16.481Z,101361.11
2022-10-28T09:29:22.788Z,101357.67
2022-10-28T09:30:29.041Z,101364.87
2022-10-28T09:31:43.401Z,101364.39
2022-10-28T09:32:50.347Z,101355.72
2022-10-28T09:34:04.298Z,101354.74
2022-10-28T09:35:11.157Z,101352.89
2022-10-28T09:36:16.427Z,101359.14
2022-10-28T09:37:27.568Z,101359.28
2022-10-28T09:38:32.692Z,101354.86
2022-10-28T09:39:47.891Z,101356.32
2022-10-28T09:40:52.276Z,101356.19
2022-10-28T09:41:57.671Z,101365.84
2022-10-28T09:43:14.754Z,101367.80
2022-10-28T09:44:19.084Z,101363.91
2022-10-28T09:45:27.194Z,101363.05
2022-10-28T09:46:36.190Z,101364.13
2022-10-28T09:47:40.612Z,101363.28
2022-10-28T09:48:51.497Z,101365.81
2022-10-28T09:49:56.688Z,101368.02
2022-10-28T09:51:00.376Z,101368.95
2022-10-28T09:52:07.224Z,101369.77
2022-10-28T09:53:12.403Z,101369.84
2022-10-28T09:54:15.813Z,101370.22
2022-10-28T09:55:22.870Z,101384.27
2022-10-28T09:56:27.208Z,101385.88
2022-10-28T09:57:32.517Z,101390.28
2022-10-28T09:58:36.350Z,101380.13
2022-10-28T09:59:40.861Z,101379.05
2022-10-28T10:00:45.201Z,101377.84
2022-10-28T10:01:51.652Z,101380.64
2022-10-28T10:02:58.235Z,101383.31
2022-10-28T10:04:01.133Z,101380.82
2022-10-28T10:05:07.365Z,101376.66
2022-10-28T10:06:12.426Z,101378.77
2022-10-28T10:07:17.499Z,101377.91
2022-10-28T10:08:21.640Z,101375.74
2022-10-28T10:09:26.920Z,101376.59
2022-10-28T10:10:37.729Z,101367.09
2022-10-28T10:11:45.386Z,101366.69
2022-10-28T10:12:52.390Z,101363.00
2022-10-28T10:13:56.086Z,101361.41
2022-10-28T10:14:59.933Z,101360.44
2022-10-28T10:16:05.382Z,101360.03
2022-10-28T10:17:16.408Z,101362.68
2022-10-28T10:18:21.020Z,101367.01
2022-10-28T10:19:24.357Z,101366.55
2022-10-28T10:20:27.873Z,101356.65
2022-10-28T10:21:34.920Z,101356.80
2022-10-28T10:22:42.654Z,101354.33
2022-10-28T10:23:46.327Z,101362.60
2022-10-28T10:24:49.726Z,101365.45
2022-10-28T10:27:12.811Z,101363.80
2022-10-28T10:28:17.583Z,101372.73
2022-10-28T10:29:21.284Z,101366.45
2022-10-28T10:30:28.245Z,101369.94
2022-10-28T10:31:31.866Z,101365.57
2022-10-28T10:32:35.256Z,101365.69
2022-10-28T10:33:40.109Z,101367.74
2022-10-28T10:34:44.252Z,101370.75
2022-10-28T10:35:50.994Z,101367.50
2022-10-28T10:36:55.040Z,101355.95
2022-10-28T10:38:00.290Z,101347.48
2022-10-28T10:39:04.012Z,101358.81
2022-10-28T10:40:20.355Z,101360.65
2022-10-28T10:41:36.812Z,101357.14
2022-10-28T10:42:51.884Z,101354.84
2022-10-28T10:43:47.806Z,101353.86
2022-10-28T10:44:52.864Z,101353.74
2022-10-28T10:46:08.083Z,101351.30
2022-10-28T10:47:16.914Z,101352.89
2022-10-28T10:48:23.547Z,101351.73
2022-10-28T10:49:27.542Z,101353.44
2022-10-28T10:51:40.117Z,101353.25
2022-10-28T10:52:44.466Z,101348.77
2022-10-28T10:53:51.717Z,101351.94
2022-10-28T10:54:59.966Z,101349.38
2022-10-28T10:56:04.891Z,101350.58
2022-10-28T10:57:17.933Z,101334.34
2022-10-28T10:58:22.971Z,101343.94
2022-10-28T10:59:29.411Z,101345.41
2022-10-28T11:00:37.285Z,101343.70
2022-10-28T11:01:41.620Z,101334.83
2022-10-28T11:02:50.049Z,101338.22
2022-10-28T11:05:06.759Z,101340.39
2022-10-28T11:06:23.229Z,101331.86
2022-10-28T11:07:17.027Z,101331.08
2022-10-28T11:08:39.884Z,101326.20
2022-10-28T11:09:43.349Z,101320.73
2022-10-28T11:10:48.285Z,101321.13
2022-10-28T11:11:55.711Z,101322.72
2022-10-28T11:13:00.978Z,101315.99
2022-10-28T11:14:05.203Z,101324.28
2022-10-28T11:15:19.988Z,101322.95
2022-10-28T11:16:27.619Z,101323.42
2022-10-28T11:18:39.288Z,101324.44
2022-10-28T11:19:41.959Z,101316.61
2022-10-28T11:20:56.220Z,101321.25
2022-10-28T11:22:03.475Z,101329.53
2022-10-28T11:23:10.334Z,101311.59
2022-10-28T11:24:28.078Z,101318.44
2022-10-28T11:25:39.532Z,101314.28
2022-10-28T11:26:44.757Z,101310.86
2022-10-28T11:27:57.635Z,101312.68
2022-10-28T11:30:17.317Z,101304.86
2022-10-28T11:31:38.478Z,101305.48
2022-10-28T11:32:54.610Z,101309.03
2022-10-28T11:33:49.665Z,101304.39
2022-10-28T11:35:13.121Z,101299.36
2022-10-28T11:36:21.430Z,101303.00
2022-10-28T11:37:31.301Z,101303.02
2022-10-28T11:38:38.465Z,101296.05
2022-10-28T11:39:44.791Z,101303.53
2022-10-28T11:41:07.401Z,101302.41
2022-10-28T11:42:27.407Z,101303.12
2022-10-28T11:43:38.539Z,101305.86
2022-10-28T11:44:47.309Z,101292.50
2022-10-28T11:45:56.619Z,101301.17
2022-10-28T11:47:10.685Z,101298.83
2022-10-28T11:48:18.784Z,101303.44
2022-10-28T11:49:23.845Z,101299.66
2022-10-28T11:50:33.826Z,101297.94
2022-10-28T11:51:39.929Z,101296.34
2022-10-28T11:52:48.159Z,101293.21
2022-10-28T11:53:58.991Z,101297.38
2022-10-28T11:55:13.221Z,101285.69
2022-10-28T11:56:28.117Z,101288.78
2022-10-28T11:57:36.545Z,101288.70
2022-10-28T11:59:01.030Z,101290.22
2022-10-28T12:00:12.181Z,101287.22
2022-10-28T12:01:22.719Z,101281.52
2022-10-28T12:02:37.014Z,101285.72
2022-10-28T12:03:43.671Z,101275.36
2022-10-28T12:05:01.077Z,101279.17
2022-10-28T12:06:26.305Z,101276.86
2022-10-28T12:07:30.857Z,101282.73
2022-10-28T12:08:41.778Z,101272.75
2022-10-28T12:09:54.365Z,101280.74
2022-10-28T12:11:08.517Z,101275.75
2022-10-28T12:12:13.912Z,101274.45
2022-10-28T12:13:25.147Z,101277.37
2022-10-28T12:14:40.177Z,101281.02
2022-10-28T12:15:48.022Z,101273.11
2022-10-28T12:16:54.401Z,101279.84
2022-10-28T12:17:59.751Z,101273.50
2022-10-28T12:19:05.337Z,101274.70
2022-10-28T12:20:11.675Z,101270.70
2022-10-28T12:21:17.030Z,101277.27
2022-10-28T12:22:35.534Z,101269.45
2022-10-28T12:23:39.203Z,101267.14
2022-10-28T12:24:46.221Z,101265.91
2022-10-28T12:25:55.613Z,101265.05
2022-10-28T12:27:01.102Z,101261.27
2022-10-28T12:28:05.461Z,101253.97
2022-10-28T12:29:21.377Z,101259.91
2022-10-28T12:30:27.491Z,101258.31
2022-10-28T12:31:32.179Z,101260.87
2022-10-28T12:32:38.263Z,101253.44
2022-10-28T12:33:45.110Z,101253.06
2022-10-28T12:34:50.588Z,101256.99
2022-10-28T12:35:55.625Z,101257.39
2022-10-28T12:37:18.797Z,101253.47
2022-10-28T12:38:31.092Z,101252.73
2022-10-28T12:39:43.161Z,101247.24
2022-10-28T12:40:52.798Z,101241.99
2022-10-28T12:42:06.051Z,101244.44
2022-10-28T12:43:20.101Z,101242.61
2022-10-28T12:44:25.277Z,101249.58